sensor_id;sensor_type;location;lat;lon;timestamp;P1;durP1;ratioP1;P2;durP2;ratioP2
69847;SDS011;57143;55.940;37.496;2022-10-16T00:00:00;9.40;;;3.10;;
69847;SDS011;57143;55.940;37.496;2022-10-16T00:02:28;12.80;;;3.47;;
69847;SDS011;57143;55.940;37.496;2022-10-16T00:04:55;8.48;;;3.10;;
69847;SDS011;57143;55.940;37.496;2022-10-16T00:07:22;9.07;;;3.53;;
69847;SDS011;57143;55.940;37.496;2022-10-16T00:09:49;10.55;;;3.28;;
69847;SDS011;57143;55.940;37.496;2022-10-16T00:12:18;11.40;;;3.08;;
69847;SDS011;57143;55.940;37.496;2022-10-16T00:14:45;8.70;;;3.03;;
69847;SDS011;57143;55.940;37.496;2022-10-16T00:17:12;8.93;;;2.92;;
69847;SDS011;57143;55.940;37.496;2022-10-16T00:19:39;9.55;;;3.50;;
69847;SDS011;57143;55.940;37.496;2022-10-16T00:22:24;10.23;;;3.25;;
69847;SDS011;57143;55.940;37.496;2022-10-16T00:24:51;10.27;;;3.65;;
69847;SDS011;57143;55.940;37.496;2022-10-16T00:27:20;8.43;;;3.43;;
69847;SDS011;57143;55.940;37.496;2022-10-16T00:29:49;8.93;;;2.65;;
69847;SDS011;57143;55.940;37.496;2022-10-16T00:32:16;11.77;;;3.38;;
69847;SDS011;57143;55.940;37.496;2022-10-16T00:34:43;10.10;;;3.55;;
69847;SDS011;57143;55.940;37.496;2022-10-16T00:37:10;9.82;;;3.00;;
69847;SDS011;57143;55.940;37.496;2022-10-16T00:39:37;10.57;;;3.30;;
69847;SDS011;57143;55.940;37.496;2022-10-16T00:42:05;10.02;;;3.30;;
69847;SDS011;57143;55.940;37.496;2022-10-16T00:44:49;7.60;;;3.10;;
69847;SDS011;57143;55.940;37.496;2022-10-16T00:47:19;9.75;;;3.40;;
69847;SDS011;57143;55.940;37.496;2022-10-16T00:49:51;8.70;;;2.97;;
69847;SDS011;57143;55.940;37.496;2022-10-16T00:52:22;8.30;;;3.07;;
69847;SDS011;57143;55.940;37.496;2022-10-16T00:54:49;9.85;;;3.38;;
69847;SDS011;57143;55.940;37.496;2022-10-16T00:57:19;12.07;;;4.05;;
69847;SDS011;57143;55.940;37.496;2022-10-16T00:59:46;9.20;;;3.35;;
69847;SDS011;57143;55.940;37.496;2022-10-16T01:02:16;11.88;;;3.55;;
69847;SDS011;57143;55.940;37.496;2022-10-16T01:04:44;8.70;;;2.73;;
69847;SDS011;57143;55.940;37.496;2022-10-16T01:07:15;9.27;;;3.45;;
69847;SDS011;57143;55.940;37.496;2022-10-16T01:09:52;10.32;;;3.30;;
69847;SDS011;57143;55.940;37.496;2022-10-16T01:12:31;10.18;;;3.15;;
69847;SDS011;57143;55.940;37.496;2022-10-16T01:15:05;9.73;;;3.10;;
69847;SDS011;57143;55.940;37.496;2022-10-16T01:17:41;9.63;;;3.00;;
69847;SDS011;57143;55.940;37.496;2022-10-16T01:20:14;9.60;;;3.00;;
69847;SDS011;57143;55.940;37.496;2022-10-16T01:22:55;11.43;;;3.95;;
69847;SDS011;57143;55.940;37.496;2022-10-16T01:25:35;8.38;;;3.05;;
69847;SDS011;57143;55.940;37.496;2022-10-16T01:28:14;9.10;;;3.75;;
69847;SDS011;57143;55.940;37.496;2022-10-16T01:30:44;8.50;;;3.10;;
69847;SDS011;57143;55.940;37.496;2022-10-16T01:33:14;8.60;;;3.03;;
69847;SDS011;57143;55.940;37.496;2022-10-16T01:35:47;9.65;;;3.03;;
69847;SDS011;57143;55.940;37.496;2022-10-16T01:38:20;9.98;;;3.30;;
69847;SDS011;57143;55.940;37.496;2022-10-16T01:40:55;7.55;;;2.97;;
69847;SDS011;57143;55.940;37.496;2022-10-16T01:43:29;10.93;;;3.40;;
69847;SDS011;57143;55.940;37.496;2022-10-16T01:45:59;11.40;;;2.80;;
69847;SDS011;57143;55.940;37.496;2022-10-16T01:48:27;9.15;;;3.28;;
69847;SDS011;57143;55.940;37.496;2022-10-16T01:50:58;8.32;;;2.95;;
69847;SDS011;57143;55.940;37.496;2022-10-16T01:53:29;11.25;;;3.58;;
69847;SDS011;57143;55.940;37.496;2022-10-16T01:55:57;8.33;;;3.00;;
69847;SDS011;57143;55.940;37.496;2022-10-16T01:58:25;10.00;;;2.88;;
69847;SDS011;57143;55.940;37.496;2022-10-16T02:00:59;10.90;;;3.30;;
69847;SDS011;57143;55.940;37.496;2022-10-16T02:03:29;8.55;;;3.05;;
69847;SDS011;57143;55.940;37.496;2022-10-16T02:05:56;7.72;;;3.00;;
69847;SDS011;57143;55.940;37.496;2022-10-16T02:08:25;8.63;;;2.90;;
69847;SDS011;57143;55.940;37.496;2022-10-16T02:10:56;10.25;;;2.90;;
69847;SDS011;57143;55.940;37.496;2022-10-16T02:13:26;8.95;;;3.03;;
69847;SDS011;57143;55.940;37.496;2022-10-16T02:15:57;13.25;;;3.33;;
69847;SDS011;57143;55.940;37.496;2022-10-16T02:18:24;12.18;;;3.25;;
69847;SDS011;57143;55.940;37.496;2022-10-16T02:20:57;9.87;;;3.30;;
69847;SDS011;57143;55.940;37.496;2022-10-16T02:23:28;9.18;;;3.03;;
69847;SDS011;57143;55.940;37.496;2022-10-16T02:26:00;7.95;;;2.53;;
69847;SDS011;57143;55.940;37.496;2022-10-16T02:28:33;8.27;;;2.80;;
69847;SDS011;57143;55.940;37.496;2022-10-16T02:31:06;13.60;;;3.22;;
69847;SDS011;57143;55.940;37.496;2022-10-16T02:33:36;8.30;;;2.73;;
69847;SDS011;57143;55.940;37.496;2022-10-16T02:36:06;9.27;;;3.03;;
69847;SDS011;57143;55.940;37.496;2022-10-16T02:38:34;9.15;;;3.42;;
69847;SDS011;57143;55.940;37.496;2022-10-16T02:41:03;8.15;;;3.20;;
69847;SDS011;57143;55.940;37.496;2022-10-16T02:43:30;7.78;;;2.53;;
69847;SDS011;57143;55.940;37.496;2022-10-16T02:46:00;9.67;;;3.47;;
69847;SDS011;57143;55.940;37.496;2022-10-16T02:48:27;17.50;;;3.35;;
69847;SDS011;57143;55.940;37.496;2022-10-16T02:50:54;9.23;;;3.70;;
69847;SDS011;57143;55.940;37.496;2022-10-16T02:53:22;9.85;;;2.97;;
69847;SDS011;57143;55.940;37.496;2022-10-16T02:55:49;11.75;;;3.30;;
69847;SDS011;57143;55.940;37.496;2022-10-16T02:58:16;9.97;;;3.03;;
69847;SDS011;57143;55.940;37.496;2022-10-16T03:00:43;9.90;;;2.95;;
69847;SDS011;57143;55.940;37.496;2022-10-16T03:03:11;11.15;;;3.70;;
69847;SDS011;57143;55.940;37.496;2022-10-16T03:05:38;12.93;;;3.78;;
69847;SDS011;57143;55.940;37.496;2022-10-16T03:08:05;12.38;;;4.50;;
69847;SDS011;57143;55.940;37.496;2022-10-16T03:10:32;15.47;;;4.60;;
69847;SDS011;57143;55.940;37.496;2022-10-16T03:12:59;12.55;;;3.70;;
69847;SDS011;57143;55.940;37.496;2022-10-16T03:15:26;10.25;;;3.88;;
69847;SDS011;57143;55.940;37.496;2022-10-16T03:17:54;9.32;;;3.45;;
69847;SDS011;57143;55.940;37.496;2022-10-16T03:20:23;9.23;;;3.08;;
69847;SDS011;57143;55.940;37.496;2022-10-16T03:22:50;10.63;;;3.20;;
69847;SDS011;57143;55.940;37.496;2022-10-16T03:25:17;9.68;;;3.00;;
69847;SDS011;57143;55.940;37.496;2022-10-16T03:27:44;12.02;;;3.13;;
69847;SDS011;57143;55.940;37.496;2022-10-16T03:30:11;7.65;;;2.63;;
69847;SDS011;57143;55.940;37.496;2022-10-16T03:32:38;8.90;;;2.90;;
69847;SDS011;57143;55.940;37.496;2022-10-16T03:35:06;10.60;;;3.10;;
69847;SDS011;57143;55.940;37.496;2022-10-16T03:37:34;9.93;;;3.10;;
69847;SDS011;57143;55.940;37.496;2022-10-16T03:40:02;8.55;;;2.95;;
69847;SDS011;57143;55.940;37.496;2022-10-16T03:42:29;9.15;;;3.10;;
69847;SDS011;57143;55.940;37.496;2022-10-16T03:44:56;9.70;;;3.08;;
69847;SDS011;57143;55.940;37.496;2022-10-16T03:47:23;8.87;;;2.80;;
69847;SDS011;57143;55.940;37.496;2022-10-16T03:49:50;8.00;;;2.80;;
69847;SDS011;57143;55.940;37.496;2022-10-16T03:52:17;12.20;;;3.25;;
69847;SDS011;57143;55.940;37.496;2022-10-16T03:54:46;8.30;;;2.38;;
69847;SDS011;57143;55.940;37.496;2022-10-16T03:57:13;7.43;;;2.30;;
69847;SDS011;57143;55.940;37.496;2022-10-16T03:59:40;7.50;;;2.57;;
69847;SDS011;57143;55.940;37.496;2022-10-16T04:02:07;8.70;;;2.30;;
69847;SDS011;57143;55.940;37.496;2022-10-16T04:04:34;13.10;;;3.13;;
69847;SDS011;57143;55.940;37.496;2022-10-16T04:07:00;9.82;;;2.63;;
69847;SDS011;57143;55.940;37.496;2022-10-16T04:09:27;9.25;;;3.00;;
69847;SDS011;57143;55.940;37.496;2022-10-16T04:11:56;11.77;;;2.57;;
69847;SDS011;57143;55.940;37.496;2022-10-16T04:14:23;7.78;;;2.75;;
69847;SDS011;57143;55.940;37.496;2022-10-16T04:16:50;7.28;;;2.53;;
69847;SDS011;57143;55.940;37.496;2022-10-16T04:19:17;9.20;;;3.00;;
69847;SDS011;57143;55.940;37.496;2022-10-16T04:21:44;8.38;;;2.72;;
69847;SDS011;57143;55.940;37.496;2022-10-16T04:24:11;7.83;;;2.43;;
69847;SDS011;57143;55.940;37.496;2022-10-16T04:26:38;8.35;;;2.83;;
69847;SDS011;57143;55.940;37.496;2022-10-16T04:29:07;10.98;;;3.05;;
69847;SDS011;57143;55.940;37.496;2022-10-16T04:31:34;10.15;;;2.42;;
69847;SDS011;57143;55.940;37.496;2022-10-16T04:34:01;9.02;;;3.05;;
69847;SDS011;57143;55.940;37.496;2022-10-16T04:36:28;7.63;;;2.70;;
69847;SDS011;57143;55.940;37.496;2022-10-16T04:38:55;7.65;;;2.40;;
69847;SDS011;57143;55.940;37.496;2022-10-16T04:41:22;12.40;;;3.17;;
69847;SDS011;57143;55.940;37.496;2022-10-16T04:43:49;8.32;;;2.95;;
69847;SDS011;57143;55.940;37.496;2022-10-16T04:46:17;8.90;;;3.17;;
69847;SDS011;57143;55.940;37.496;2022-10-16T04:48:44;9.67;;;2.53;;
69847;SDS011;57143;55.940;37.496;2022-10-16T04:51:12;12.05;;;2.63;;
69847;SDS011;57143;55.940;37.496;2022-10-16T04:53:39;8.85;;;2.83;;
69847;SDS011;57143;55.940;37.496;2022-10-16T04:56:06;9.45;;;2.80;;
69847;SDS011;57143;55.940;37.496;2022-10-16T04:58:33;7.68;;;2.90;;
69847;SDS011;57143;55.940;37.496;2022-10-16T05:01:00;10.63;;;3.00;;
69847;SDS011;57143;55.940;37.496;2022-10-16T05:03:28;8.02;;;2.90;;
69847;SDS011;57143;55.940;37.496;2022-10-16T05:05:55;10.65;;;3.83;;
69847;SDS011;57143;55.940;37.496;2022-10-16T05:08:22;10.00;;;2.95;;
69847;SDS011;57143;55.940;37.496;2022-10-16T05:10:49;13.20;;;3.15;;
69847;SDS011;57143;55.940;37.496;2022-10-16T05:13:16;8.97;;;3.20;;
69847;SDS011;57143;55.940;37.496;2022-10-16T05:15:46;8.88;;;3.55;;
69847;SDS011;57143;55.940;37.496;2022-10-16T05:18:13;12.82;;;3.25;;
69847;SDS011;57143;55.940;37.496;2022-10-16T05:20:42;16.20;;;3.03;;
69847;SDS011;57143;55.940;37.496;2022-10-16T05:23:09;10.02;;;3.90;;
69847;SDS011;57143;55.940;37.496;2022-10-16T05:25:37;9.87;;;3.30;;
69847;SDS011;57143;55.940;37.496;2022-10-16T05:28:04;10.25;;;3.00;;
69847;SDS011;57143;55.940;37.496;2022-10-16T05:30:31;7.93;;;2.50;;
69847;SDS011;57143;55.940;37.496;2022-10-16T05:32:58;10.25;;;3.10;;
69847;SDS011;57143;55.940;37.496;2022-10-16T05:35:25;10.95;;;3.30;;
69847;SDS011;57143;55.940;37.496;2022-10-16T05:37:53;11.00;;;2.90;;
69847;SDS011;57143;55.940;37.496;2022-10-16T05:40:20;8.32;;;3.30;;
69847;SDS011;57143;55.940;37.496;2022-10-16T05:42:48;9.90;;;3.50;;
69847;SDS011;57143;55.940;37.496;2022-10-16T05:45:15;9.65;;;2.92;;
69847;SDS011;57143;55.940;37.496;2022-10-16T05:47:42;9.20;;;3.22;;
69847;SDS011;57143;55.940;37.496;2022-10-16T05:50:09;11.53;;;3.30;;
69847;SDS011;57143;55.940;37.496;2022-10-16T05:52:36;8.75;;;3.00;;
69847;SDS011;57143;55.940;37.496;2022-10-16T05:55:04;10.82;;;3.67;;
69847;SDS011;57143;55.940;37.496;2022-10-16T05:57:32;9.65;;;3.35;;
69847;SDS011;57143;55.940;37.496;2022-10-16T05:59:59;9.25;;;2.97;;
69847;SDS011;57143;55.940;37.496;2022-10-16T06:02:26;7.23;;;3.10;;
69847;SDS011;57143;55.940;37.496;2022-10-16T06:04:53;9.43;;;3.60;;
69847;SDS011;57143;55.940;37.496;2022-10-16T06:07:20;10.20;;;4.00;;
69847;SDS011;57143;55.940;37.496;2022-10-16T06:09:48;8.23;;;3.55;;
69847;SDS011;57143;55.940;37.496;2022-10-16T06:12:17;9.15;;;3.15;;
69847;SDS011;57143;55.940;37.496;2022-10-16T06:14:45;8.40;;;3.63;;
69847;SDS011;57143;55.940;37.496;2022-10-16T06:17:12;10.70;;;3.85;;
69847;SDS011;57143;55.940;37.496;2022-10-16T06:19:39;9.27;;;3.67;;
69847;SDS011;57143;55.940;37.496;2022-10-16T06:22:06;9.48;;;3.72;;
69847;SDS011;57143;55.940;37.496;2022-10-16T06:24:33;10.52;;;3.92;;
69847;SDS011;57143;55.940;37.496;2022-10-16T06:27:00;11.10;;;3.93;;
69847;SDS011;57143;55.940;37.496;2022-10-16T06:29:30;13.98;;;4.03;;
69847;SDS011;57143;55.940;37.496;2022-10-16T06:31:57;10.20;;;3.90;;
69847;SDS011;57143;55.940;37.496;2022-10-16T06:34:25;8.52;;;3.78;;
69847;SDS011;57143;55.940;37.496;2022-10-16T06:36:52;9.30;;;4.45;;
69847;SDS011;57143;55.940;37.496;2022-10-16T06:39:20;17.43;;;4.17;;
69847;SDS011;57143;55.940;37.496;2022-10-16T06:41:47;15.55;;;3.97;;
69847;SDS011;57143;55.940;37.496;2022-10-16T06:44:14;11.73;;;4.15;;
69847;SDS011;57143;55.940;37.496;2022-10-16T06:46:43;12.30;;;4.57;;
69847;SDS011;57143;55.940;37.496;2022-10-16T06:49:10;11.75;;;4.15;;
69847;SDS011;57143;55.940;37.496;2022-10-16T06:51:37;11.73;;;4.23;;
69847;SDS011;57143;55.940;37.496;2022-10-16T06:54:06;10.07;;;3.90;;
69847;SDS011;57143;55.940;37.496;2022-10-16T06:56:33;14.45;;;3.97;;
69847;SDS011;57143;55.940;37.496;2022-10-16T06:59:01;9.27;;;3.53;;
69847;SDS011;57143;55.940;37.496;2022-10-16T07:01:29;13.50;;;4.18;;
69847;SDS011;57143;55.940;37.496;2022-10-16T07:03:57;9.27;;;3.20;;
69847;SDS011;57143;55.940;37.496;2022-10-16T07:06:25;10.73;;;3.60;;
69847;SDS011;57143;55.940;37.496;2022-10-16T07:08:53;10.52;;;3.53;;
69847;SDS011;57143;55.940;37.496;2022-10-16T07:11:20;9.32;;;3.80;;
69847;SDS011;57143;55.940;37.496;2022-10-16T07:13:49;10.57;;;4.82;;
69847;SDS011;57143;55.940;37.496;2022-10-16T07:16:17;10.70;;;4.30;;
69847;SDS011;57143;55.940;37.496;2022-10-16T07:18:46;8.52;;;3.40;;
69847;SDS011;57143;55.940;37.496;2022-10-16T07:21:16;9.00;;;3.85;;
69847;SDS011;57143;55.940;37.496;2022-10-16T07:23:45;12.80;;;4.05;;
69847;SDS011;57143;55.940;37.496;2022-10-16T07:26:16;9.88;;;3.50;;
69847;SDS011;57143;55.940;37.496;2022-10-16T07:28:44;11.53;;;3.73;;
69847;SDS011;57143;55.940;37.496;2022-10-16T07:31:12;9.10;;;3.55;;
69847;SDS011;57143;55.940;37.496;2022-10-16T07:33:40;9.73;;;3.95;;
69847;SDS011;57143;55.940;37.496;2022-10-16T07:36:09;8.93;;;3.60;;
69847;SDS011;57143;55.940;37.496;2022-10-16T07:38:38;10.18;;;3.47;;
69847;SDS011;57143;55.940;37.496;2022-10-16T07:41:08;9.67;;;3.70;;
69847;SDS011;57143;55.940;37.496;2022-10-16T07:43:36;12.35;;;3.72;;
69847;SDS011;57143;55.940;37.496;2022-10-16T07:46:04;12.57;;;3.95;;
69847;SDS011;57143;55.940;37.496;2022-10-16T07:48:32;11.60;;;3.60;;
69847;SDS011;57143;55.940;37.496;2022-10-16T07:51:00;10.40;;;3.75;;
69847;SDS011;57143;55.940;37.496;2022-10-16T07:53:27;9.17;;;3.50;;
69847;SDS011;57143;55.940;37.496;2022-10-16T07:55:58;10.55;;;4.05;;
69847;SDS011;57143;55.940;37.496;2022-10-16T07:58:25;12.02;;;4.22;;
69847;SDS011;57143;55.940;37.496;2022-10-16T08:00:53;13.45;;;4.00;;
69847;SDS011;57143;55.940;37.496;2022-10-16T08:03:20;12.85;;;4.15;;
69847;SDS011;57143;55.940;37.496;2022-10-16T08:05:47;11.17;;;4.47;;
69847;SDS011;57143;55.940;37.496;2022-10-16T08:08:14;11.00;;;4.13;;
69847;SDS011;57143;55.940;37.496;2022-10-16T08:10:42;11.93;;;3.97;;
69847;SDS011;57143;55.940;37.496;2022-10-16T08:13:11;9.55;;;3.58;;
69847;SDS011;57143;55.940;37.496;2022-10-16T08:15:40;9.05;;;3.42;;
69847;SDS011;57143;55.940;37.496;2022-10-16T08:18:07;12.70;;;4.17;;
69847;SDS011;57143;55.940;37.496;2022-10-16T08:20:34;14.25;;;3.85;;
69847;SDS011;57143;55.940;37.496;2022-10-16T08:23:01;11.20;;;4.10;;
69847;SDS011;57143;55.940;37.496;2022-10-16T08:25:29;9.63;;;3.97;;
69847;SDS011;57143;55.940;37.496;2022-10-16T08:27:56;10.25;;;3.88;;
69847;SDS011;57143;55.940;37.496;2022-10-16T08:30:24;8.50;;;3.20;;
69847;SDS011;57143;55.940;37.496;2022-10-16T08:32:51;9.95;;;3.20;;
69847;SDS011;57143;55.940;37.496;2022-10-16T08:35:19;10.23;;;3.67;;
69847;SDS011;57143;55.940;37.496;2022-10-16T08:37:46;9.18;;;3.20;;
69847;SDS011;57143;55.940;37.496;2022-10-16T08:40:16;10.43;;;3.60;;
69847;SDS011;57143;55.940;37.496;2022-10-16T08:42:49;9.17;;;3.20;;
69847;SDS011;57143;55.940;37.496;2022-10-16T08:45:33;11.35;;;3.45;;
69847;SDS011;57143;55.940;37.496;2022-10-16T08:48:15;10.95;;;3.28;;
69847;SDS011;57143;55.940;37.496;2022-10-16T08:50:47;11.30;;;3.47;;
69847;SDS011;57143;55.940;37.496;2022-10-16T08:53:17;12.40;;;3.92;;
69847;SDS011;57143;55.940;37.496;2022-10-16T08:55:51;8.97;;;3.37;;
69847;SDS011;57143;55.940;37.496;2022-10-16T08:58:20;8.98;;;3.17;;
69847;SDS011;57143;55.940;37.496;2022-10-16T09:00:50;12.00;;;3.70;;
69847;SDS011;57143;55.940;37.496;2022-10-16T09:03:24;7.97;;;3.03;;
69847;SDS011;57143;55.940;37.496;2022-10-16T09:06:07;9.90;;;3.08;;
69847;SDS011;57143;55.940;37.496;2022-10-16T09:08:47;8.93;;;3.17;;
69847;SDS011;57143;55.940;37.496;2022-10-16T09:11:31;9.43;;;3.17;;
69847;SDS011;57143;55.940;37.496;2022-10-16T09:14:12;10.80;;;3.45;;
69847;SDS011;57143;55.940;37.496;2022-10-16T09:16:53;8.52;;;2.97;;
69847;SDS011;57143;55.940;37.496;2022-10-16T09:19:27;11.38;;;3.33;;
69847;SDS011;57143;55.940;37.496;2022-10-16T09:22:02;9.93;;;2.90;;
69847;SDS011;57143;55.940;37.496;2022-10-16T09:24:39;11.23;;;3.53;;
69847;SDS011;57143;55.940;37.496;2022-10-16T09:27:06;9.93;;;3.35;;
69847;SDS011;57143;55.940;37.496;2022-10-16T09:29:37;9.55;;;3.45;;
69847;SDS011;57143;55.940;37.496;2022-10-16T09:32:10;8.85;;;3.22;;
69847;SDS011;57143;55.940;37.496;2022-10-16T09:37:30;11.77;;;3.65;;
69847;SDS011;57143;55.940;37.496;2022-10-16T09:42:54;12.57;;;3.50;;
69847;SDS011;57143;55.940;37.496;2022-10-16T09:45:30;9.20;;;3.42;;
69847;SDS011;57143;55.940;37.496;2022-10-16T09:48:02;9.93;;;3.20;;
69847;SDS011;57143;55.940;37.496;2022-10-16T09:50:37;8.45;;;2.83;;
69847;SDS011;57143;55.940;37.496;2022-10-16T09:53:08;9.23;;;3.60;;
69847;SDS011;57143;55.940;37.496;2022-10-16T09:55:47;7.38;;;3.00;;
69847;SDS011;57143;55.940;37.496;2022-10-16T09:58:15;11.18;;;2.90;;
69847;SDS011;57143;55.940;37.496;2022-10-16T10:00:48;12.00;;;3.43;;
69847;SDS011;57143;55.940;37.496;2022-10-16T10:03:20;9.80;;;3.00;;
69847;SDS011;57143;55.940;37.496;2022-10-16T10:06:06;7.80;;;3.28;;
69847;SDS011;57143;55.940;37.496;2022-10-16T10:08:55;8.63;;;2.70;;
69847;SDS011;57143;55.940;37.496;2022-10-16T10:14:17;8.33;;;2.30;;
69847;SDS011;57143;55.940;37.496;2022-10-16T10:16:52;9.77;;;2.95;;
69847;SDS011;57143;55.940;37.496;2022-10-16T10:19:30;9.35;;;2.85;;
69847;SDS011;57143;55.940;37.496;2022-10-16T10:22:11;7.70;;;2.30;;
69847;SDS011;57143;55.940;37.496;2022-10-16T10:24:43;7.25;;;2.65;;
69847;SDS011;57143;55.940;37.496;2022-10-16T10:27:12;12.37;;;3.00;;
69847;SDS011;57143;55.940;37.496;2022-10-16T10:29:46;9.23;;;2.70;;
69847;SDS011;57143;55.940;37.496;2022-10-16T10:32:22;9.35;;;3.05;;
69847;SDS011;57143;55.940;37.496;2022-10-16T10:35:15;8.68;;;2.30;;
69847;SDS011;57143;55.940;37.496;2022-10-16T10:38:01;10.55;;;3.20;;
69847;SDS011;57143;55.940;37.496;2022-10-16T10:40:39;10.80;;;3.07;;
69847;SDS011;57143;55.940;37.496;2022-10-16T10:43:15;6.65;;;2.22;;
69847;SDS011;57143;55.940;37.496;2022-10-16T10:45:54;7.85;;;2.80;;
69847;SDS011;57143;55.940;37.496;2022-10-16T10:51:32;7.93;;;2.60;;
69847;SDS011;57143;55.940;37.496;2022-10-16T10:54:13;6.77;;;2.37;;
69847;SDS011;57143;55.940;37.496;2022-10-16T10:56:47;10.90;;;3.03;;
69847;SDS011;57143;55.940;37.496;2022-10-16T10:59:28;10.05;;;3.10;;
69847;SDS011;57143;55.940;37.496;2022-10-16T11:02:05;8.90;;;2.22;;
69847;SDS011;57143;55.940;37.496;2022-10-16T11:04:47;9.43;;;3.13;;
69847;SDS011;57143;55.940;37.496;2022-10-16T11:07:27;7.37;;;1.73;;
69847;SDS011;57143;55.940;37.496;2022-10-16T11:10:03;8.15;;;3.10;;
69847;SDS011;57143;55.940;37.496;2022-10-16T11:12:36;10.20;;;3.15;;
69847;SDS011;57143;55.940;37.496;2022-10-16T11:15:10;11.82;;;2.88;;
69847;SDS011;57143;55.940;37.496;2022-10-16T11:17:41;9.30;;;2.78;;
69847;SDS011;57143;55.940;37.496;2022-10-16T11:20:13;9.07;;;2.90;;
69847;SDS011;57143;55.940;37.496;2022-10-16T11:22:47;8.13;;;2.42;;
69847;SDS011;57143;55.940;37.496;2022-10-16T11:25:18;9.88;;;2.78;;
69847;SDS011;57143;55.940;37.496;2022-10-16T11:27:50;8.48;;;2.40;;
69847;SDS011;57143;55.940;37.496;2022-10-16T11:30:24;8.90;;;3.10;;
69847;SDS011;57143;55.940;37.496;2022-10-16T11:33:02;8.67;;;2.97;;
69847;SDS011;57143;55.940;37.496;2022-10-16T11:35:39;8.80;;;2.80;;
69847;SDS011;57143;55.940;37.496;2022-10-16T11:38:13;11.57;;;2.78;;
69847;SDS011;57143;55.940;37.496;2022-10-16T11:40:47;7.05;;;2.78;;
69847;SDS011;57143;55.940;37.496;2022-10-16T11:43:19;12.35;;;2.75;;
69847;SDS011;57143;55.940;37.496;2022-10-16T11:45:52;7.37;;;2.80;;
69847;SDS011;57143;55.940;37.496;2022-10-16T11:48:23;8.65;;;2.70;;
69847;SDS011;57143;55.940;37.496;2022-10-16T11:50:56;11.57;;;3.47;;
69847;SDS011;57143;55.940;37.496;2022-10-16T11:53:34;7.80;;;2.20;;
69847;SDS011;57143;55.940;37.496;2022-10-16T11:56:11;7.82;;;2.95;;
69847;SDS011;57143;55.940;37.496;2022-10-16T11:58:41;11.43;;;2.87;;
69847;SDS011;57143;55.940;37.496;2022-10-16T12:01:16;8.65;;;2.78;;
69847;SDS011;57143;55.940;37.496;2022-10-16T12:03:53;8.32;;;2.85;;
69847;SDS011;57143;55.940;37.496;2022-10-16T12:06:36;8.45;;;2.67;;
69847;SDS011;57143;55.940;37.496;2022-10-16T12:09:10;10.18;;;2.47;;
69847;SDS011;57143;55.940;37.496;2022-10-16T12:11:45;8.63;;;2.53;;
69847;SDS011;57143;55.940;37.496;2022-10-16T12:14:20;8.63;;;2.40;;
69847;SDS011;57143;55.940;37.496;2022-10-16T12:17:00;8.48;;;3.00;;
69847;SDS011;57143;55.940;37.496;2022-10-16T12:19:30;9.43;;;3.00;;
69847;SDS011;57143;55.940;37.496;2022-10-16T12:21:59;12.30;;;2.70;;
69847;SDS011;57143;55.940;37.496;2022-10-16T12:24:31;8.37;;;3.13;;
69847;SDS011;57143;55.940;37.496;2022-10-16T12:27:01;9.90;;;3.17;;
69847;SDS011;57143;55.940;37.496;2022-10-16T12:29:33;10.88;;;2.83;;
69847;SDS011;57143;55.940;37.496;2022-10-16T12:32:03;7.30;;;2.92;;
69847;SDS011;57143;55.940;37.496;2022-10-16T12:34:37;10.95;;;2.80;;
69847;SDS011;57143;55.940;37.496;2022-10-16T12:37:10;9.73;;;3.30;;
69847;SDS011;57143;55.940;37.496;2022-10-16T12:39:41;8.65;;;2.75;;
69847;SDS011;57143;55.940;37.496;2022-10-16T12:42:22;7.95;;;2.70;;
69847;SDS011;57143;55.940;37.496;2022-10-16T12:44:58;6.80;;;2.50;;
69847;SDS011;57143;55.940;37.496;2022-10-16T12:47:35;9.90;;;3.10;;
69847;SDS011;57143;55.940;37.496;2022-10-16T12:50:21;9.60;;;2.93;;
69847;SDS011;57143;55.940;37.496;2022-10-16T12:52:51;8.45;;;3.22;;
69847;SDS011;57143;55.940;37.496;2022-10-16T12:55:20;9.35;;;2.60;;
69847;SDS011;57143;55.940;37.496;2022-10-16T12:57:56;12.60;;;3.53;;
69847;SDS011;57143;55.940;37.496;2022-10-16T13:00:32;8.48;;;2.80;;
69847;SDS011;57143;55.940;37.496;2022-10-16T13:06:15;9.05;;;2.88;;
69847;SDS011;57143;55.940;37.496;2022-10-16T13:08:54;9.93;;;2.80;;
69847;SDS011;57143;55.940;37.496;2022-10-16T13:11:43;9.10;;;3.33;;
69847;SDS011;57143;55.940;37.496;2022-10-16T13:14:23;9.60;;;3.17;;
69847;SDS011;57143;55.940;37.496;2022-10-16T13:17:08;9.70;;;3.37;;
69847;SDS011;57143;55.940;37.496;2022-10-16T13:19:44;9.45;;;2.83;;
69847;SDS011;57143;55.940;37.496;2022-10-16T13:22:21;8.25;;;3.60;;
69847;SDS011;57143;55.940;37.496;2022-10-16T13:24:58;10.15;;;3.45;;
69847;SDS011;57143;55.940;37.496;2022-10-16T13:27:40;10.60;;;3.60;;
69847;SDS011;57143;55.940;37.496;2022-10-16T13:30:17;9.40;;;2.73;;
69847;SDS011;57143;55.940;37.496;2022-10-16T13:32:46;11.88;;;3.30;;
69847;SDS011;57143;55.940;37.496;2022-10-16T13:35:19;13.32;;;4.00;;
69847;SDS011;57143;55.940;37.496;2022-10-16T13:37:47;12.07;;;3.40;;
69847;SDS011;57143;55.940;37.496;2022-10-16T13:40:18;11.70;;;3.67;;
69847;SDS011;57143;55.940;37.496;2022-10-16T13:42:49;11.27;;;3.60;;
69847;SDS011;57143;55.940;37.496;2022-10-16T13:45:17;10.77;;;3.72;;
69847;SDS011;57143;55.940;37.496;2022-10-16T13:47:46;13.55;;;4.47;;
69847;SDS011;57143;55.940;37.496;2022-10-16T13:50:13;12.80;;;4.05;;
69847;SDS011;57143;55.940;37.496;2022-10-16T13:52:41;13.07;;;4.55;;
69847;SDS011;57143;55.940;37.496;2022-10-16T13:55:12;11.33;;;4.43;;
69847;SDS011;57143;55.940;37.496;2022-10-16T13:57:41;14.38;;;5.38;;
69847;SDS011;57143;55.940;37.496;2022-10-16T14:02:57;10.95;;;3.90;;
69847;SDS011;57143;55.940;37.496;2022-10-16T14:05:27;11.80;;;4.45;;
69847;SDS011;57143;55.940;37.496;2022-10-16T14:07:55;11.03;;;3.93;;
69847;SDS011;57143;55.940;37.496;2022-10-16T14:10:25;15.27;;;4.57;;
69847;SDS011;57143;55.940;37.496;2022-10-16T14:12:58;12.75;;;4.25;;
69847;SDS011;57143;55.940;37.496;2022-10-16T14:15:28;12.55;;;4.22;;
69847;SDS011;57143;55.940;37.496;2022-10-16T14:17:57;11.63;;;4.30;;
69847;SDS011;57143;55.940;37.496;2022-10-16T14:20:26;10.47;;;3.83;;
69847;SDS011;57143;55.940;37.496;2022-10-16T14:22:59;13.27;;;3.80;;
69847;SDS011;57143;55.940;37.496;2022-10-16T14:25:28;12.05;;;4.38;;
69847;SDS011;57143;55.940;37.496;2022-10-16T14:27:57;9.50;;;3.97;;
69847;SDS011;57143;55.940;37.496;2022-10-16T14:30:26;12.20;;;4.78;;
69847;SDS011;57143;55.940;37.496;2022-10-16T14:32:56;10.30;;;3.80;;
69847;SDS011;57143;55.940;37.496;2022-10-16T14:35:25;11.65;;;3.75;;
69847;SDS011;57143;55.940;37.496;2022-10-16T14:37:55;10.48;;;3.75;;
69847;SDS011;57143;55.940;37.496;2022-10-16T14:40:24;16.23;;;4.20;;
69847;SDS011;57143;55.940;37.496;2022-10-16T14:42:53;8.80;;;3.45;;
69847;SDS011;57143;55.940;37.496;2022-10-16T14:45:21;15.33;;;3.93;;
69847;SDS011;57143;55.940;37.496;2022-10-16T14:47:52;13.35;;;4.20;;
69847;SDS011;57143;55.940;37.496;2022-10-16T14:50:22;10.98;;;4.10;;
69847;SDS011;57143;55.940;37.496;2022-10-16T14:52:49;11.60;;;3.90;;
69847;SDS011;57143;55.940;37.496;2022-10-16T14:55:17;10.18;;;4.00;;
69847;SDS011;57143;55.940;37.496;2022-10-16T14:57:44;10.93;;;3.57;;
69847;SDS011;57143;55.940;37.496;2022-10-16T15:00:14;11.43;;;3.38;;
69847;SDS011;57143;55.940;37.496;2022-10-16T15:02:44;12.32;;;4.65;;
69847;SDS011;57143;55.940;37.496;2022-10-16T15:05:13;11.75;;;3.75;;